Time;durP1;ratioP1;P1;durP2;ratioP2;P2;SDS_P1;SDS_P2;PMS_P1;PMS_P2;Temp;Humidity;BMP_temperature;BMP_pressure;BME280_temperature;BME280_humidity;BME280_pressure;Samples;Min_cycle;Max_cycle;Signal;HPM_P1;HPM_P2
2022/09/10 00:00:42;;;;;;;9.68;4.35;;;;;14.00;96201.00;;;;8428083;28;20641;-69
2022/09/10 00:04:45;;;;;;;11.02;4.05;;;;;14.10;96216.00;;;;8427887;28;20294;-70
2022/09/10 00:09:21;;;;;;;6.55;3.97;;;;;14.10;96205.00;;;;8426681;28;20227;-70
2022/09/10 00:13:24;;;;;;;8.00;4.18;;;;;14.20;96202.00;;;;8427308;28;20218;-69
2022/09/10 00:17:31;;;;;;;7.05;3.97;;;;;14.20;96202.00;;;;8428106;28;20215;-70
2022/09/10 00:21:34;;;;;;;7.28;4.40;;;;;14.20;96198.00;;;;8426667;28;20214;-70
2022/09/10 00:26:13;;;;;;;6.07;4.30;;;;;14.20;96204.00;;;;8427813;28;20230;-70
2022/09/10 00:30:17;;;;;;;6.20;4.13;;;;;14.30;96197.00;;;;8427486;28;20211;-70
2022/09/10 00:34:21;;;;;;;9.68;4.25;;;;;14.40;96205.00;;;;8427368;28;20241;-71
2022/09/10 00:38:24;;;;;;;10.90;4.68;;;;;14.50;96199.00;;;;8427544;28;20686;-71
2022/09/10 00:42:29;;;;;;;6.93;5.18;;;;;14.50;96201.00;;;;8427257;28;20525;-71
2022/09/10 00:46:40;;;;;;;11.88;4.38;;;;;14.50;96199.00;;;;8426650;28;20219;-71
2022/09/10 00:50:47;;;;;;;6.63;4.20;;;;;14.50;96201.00;;;;8427392;28;20280;-70
2022/09/10 00:54:50;;;;;;;6.10;4.35;;;;;14.50;96202.00;;;;8427224;28;20227;-71
2022/09/10 00:58:54;;;;;;;6.80;3.83;;;;;14.60;96204.00;;;;8427074;28;20227;-72
2022/09/10 01:08:16;;;;;;;5.47;3.20;;;;;14.50;96196.00;;;;8427090;28;20547;-72
2022/09/10 01:12:35;;;;;;;6.43;3.38;;;;;14.50;96192.00;;;;8426943;28;20222;-71
2022/09/10 01:16:42;;;;;;;4.35;3.20;;;;;14.60;96188.00;;;;8426857;28;20663;-71
2022/09/10 01:21:05;;;;;;;5.28;3.20;;;;;14.50;96181.00;;;;8426638;28;20231;-72
2022/09/10 01:25:21;;;;;;;3.70;3.03;;;;;14.50;96193.00;;;;8432398;28;20222;-70
2022/09/10 01:29:31;;;;;;;6.97;3.25;;;;;14.30;96186.00;;;;8432418;28;20234;-71
2022/09/10 01:34:02;;;;;;;3.85;3.42;;;;;14.20;96171.00;;;;8432523;28;20580;-71
2022/09/10 01:38:08;;;;;;;4.03;3.42;;;;;14.10;96172.00;;;;8432452;28;20219;-71
2022/09/10 01:42:11;;;;;;;7.32;3.65;;;;;13.90;96171.00;;;;8432818;28;20264;-70
2022/09/10 01:46:25;;;;;;;4.30;3.90;;;;;13.80;96164.00;;;;8432264;28;20662;-71
2022/09/10 01:50:37;;;;;;;5.50;3.80;;;;;13.70;96170.00;;;;8432744;28;20222;-71
2022/09/10 01:54:52;;;;;;;4.53;3.75;;;;;13.60;96167.00;;;;8431570;28;20218;-70
2022/09/10 01:59:03;;;;;;;8.95;4.85;;;;;13.60;96177.00;;;;8431815;28;20560;-71
2022/09/10 02:03:14;;;;;;;6.72;3.92;;;;;13.60;96168.00;;;;8431368;28;20227;-72
2022/09/10 02:07:21;;;;;;;12.13;4.97;;;;;13.60;96169.00;;;;8431471;28;20280;-72
2022/09/10 02:11:55;;;;;;;9.40;5.97;;;;;13.70;96176.00;;;;8431264;28;20683;-71
2022/09/10 02:15:59;;;;;;;7.63;5.05;;;;;13.80;96179.00;;;;8431508;28;20227;-71
2022/09/10 02:20:06;;;;;;;16.15;5.70;;;;;13.90;96176.00;;;;8430895;28;20221;-72
2022/09/10 02:24:12;;;;;;;11.70;6.00;;;;;13.90;96168.00;;;;8430880;28;20222;-71
2022/09/10 02:28:49;;;;;;;16.02;5.85;;;;;14.00;96167.00;;;;8430804;28;20261;-72
2022/09/10 02:32:52;;;;;;;14.65;5.82;;;;;14.00;96171.00;;;;8430657;28;20223;-72
2022/09/10 02:36:57;;;;;;;10.30;4.95;;;;;14.10;96162.00;;;;8430173;28;20230;-72
2022/09/10 02:41:00;;;;;;;12.40;5.30;;;;;14.20;96165.00;;;;8430972;28;20242;-72
2022/09/10 02:45:39;;;;;;;12.77;5.55;;;;;14.20;96163.00;;;;8429955;28;20293;-72
2022/09/10 02:49:44;;;;;;;12.48;5.25;;;;;14.30;96162.00;;;;8430473;28;20268;-71
2022/09/10 02:53:49;;;;;;;16.25;5.95;;;;;14.30;96160.00;;;;8430140;28;20215;-72
2022/09/10 02:57:52;;;;;;;11.57;5.20;;;;;14.30;96158.00;;;;8430783;28;20219;-71
2022/09/10 03:01:55;;;;;;;16.25;5.93;;;;;14.20;96161.00;;;;8428753;28;20261;-72
2022/09/10 03:05:59;;;;;;;14.32;4.80;;;;;14.30;96155.00;;;;8430421;28;20215;-72
2022/09/10 03:10:04;;;;;;;8.75;4.30;;;;;14.30;96154.00;;;;8429817;28;20530;-72
2022/09/10 03:14:09;;;;;;;7.95;4.88;;;;;14.30;96145.00;;;;8429867;28;20226;-72
2022/09/10 03:18:43;;;;;;;12.48;4.28;;;;;14.30;96145.00;;;;8428944;28;20241;-71
2022/09/10 03:22:46;;;;;;;6.63;3.78;;;;;14.30;96151.00;;;;8429139;28;20219;-71
2022/09/10 03:26:50;;;;;;;10.65;4.65;;;;;14.30;96141.00;;;;8429539;28;20253;-72
2022/09/10 03:31:27;;;;;;;8.23;4.50;;;;;14.30;96138.00;;;;8428580;28;20223;-72
2022/09/10 03:35:30;;;;;;;5.88;3.70;;;;;14.30;96131.00;;;;8428675;28;20294;-71
2022/09/10 03:39:33;;;;;;;5.80;3.90;;;;;14.30;96136.00;;;;8428525;28;20219;-71
2022/09/10 03:43:38;;;;;;;5.32;3.83;;;;;14.30;96138.00;;;;8428974;28;20215;-71
2022/09/10 03:48:11;;;;;;;15.50;4.07;;;;;14.30;96142.00;;;;8428130;28;20230;-71
2022/09/10 03:52:15;;;;;;;6.00;3.92;;;;;14.30;96145.00;;;;8428181;28;20557;-71
2022/09/10 03:56:19;;;;;;;13.90;4.10;;;;;14.30;96141.00;;;;8428156;28;20231;-70
2022/09/10 04:00:25;;;;;;;8.70;4.35;;;;;14.30;96146.00;;;;8428648;28;20215;-71
2022/09/10 04:04:30;;;;;;;5.97;4.38;;;;;14.30;96155.00;;;;8427898;28;20249;-71
2022/09/10 04:08:34;;;;;;;8.77;3.80;;;;;14.30;96150.00;;;;8428241;28;20274;-71
2022/09/10 04:12:38;;;;;;;7.07;3.63;;;;;14.30;96164.00;;;;8428141;28;20215;-71
2022/09/10 04:16:42;;;;;;;5.38;3.72;;;;;14.40;96169.00;;;;8427840;28;20237;-71
2022/09/10 04:20:47;;;;;;;7.70;4.40;;;;;14.40;96161.00;;;;8426543;28;20227;-70
2022/09/10 04:25:20;;;;;;;8.65;3.92;;;;;14.30;96157.00;;;;8428032;28;20305;-71
2022/09/10 04:29:24;;;;;;;9.32;4.28;;;;;14.30;96156.00;;;;8427827;28;20211;-71
2022/09/10 04:33:28;;;;;;;17.75;4.43;;;;;14.30;96152.00;;;;8427942;28;20588;-71
2022/09/10 04:37:31;;;;;;;12.02;4.15;;;;;14.40;96162.00;;;;8428395;28;20231;-71
2022/09/10 04:42:08;;;;;;;9.63;4.35;;;;;14.40;96162.00;;;;8427365;28;20238;-72
2022/09/10 04:46:12;;;;;;;8.07;3.78;;;;;14.50;96161.00;;;;8427446;28;20215;-72
2022/09/10 04:50:16;;;;;;;7.10;3.53;;;;;14.50;96168.00;;;;8426317;28;20223;-71
2022/09/10 04:54:19;;;;;;;5.38;3.00;;;;;14.50;96167.00;;;;8427270;28;20223;-71
2022/09/10 04:58:56;;;;;;;8.82;3.30;;;;;14.50;96166.00;;;;8430529;28;20223;-71
2022/09/10 05:03:00;;;;;;;7.50;3.63;;;;;14.60;96166.00;;;;8433863;28;20223;-71
2022/09/10 05:07:04;;;;;;;10.00;3.03;;;;;14.70;96180.00;;;;8433627;28;20223;-72
2022/09/10 05:11:38;;;;;;;5.03;2.75;;;;;14.80;96174.00;;;;8433432;28;20656;-71
2022/09/10 05:15:42;;;;;;;8.82;3.42;;;;;14.90;96180.00;;;;8433359;28;20216;-72
2022/09/10 05:19:45;;;;;;;8.27;3.65;;;;;14.90;96185.00;;;;8433593;28;20230;-72
2022/09/10 05:23:49;;;;;;;8.25;4.13;;;;;14.80;96185.00;;;;8433402;28;20218;-71
2022/09/10 05:27:52;;;;;;;8.88;3.70;;;;;14.90;96186.00;;;;8433264;28;20560;-71
2022/09/10 05:31:55;;;;;;;8.50;3.70;;;;;15.00;96181.00;;;;8433007;28;20226;-71
2022/09/10 05:35:58;;;;;;;7.10;3.72;;;;;15.00;96184.00;;;;8432860;28;20670;-71
2022/09/10 05:40:37;;;;;;;6.28;3.25;;;;;15.10;96184.00;;;;8433337;28;20671;-72
2022/09/10 05:44:40;;;;;;;7.10;3.45;;;;;15.20;96187.00;;;;8432726;28;20219;-71
2022/09/10 05:48:43;;;;;;;4.22;3.25;;;;;15.20;96195.00;;;;8432926;28;20252;-72
2022/09/10 05:52:46;;;;;;;6.32;3.08;;;;;15.30;96199.00;;;;8432375;28;20218;-71
2022/09/10 05:57:25;;;;;;;12.75;3.28;;;;;15.20;96193.00;;;;8431625;28;20223;-71
2022/09/10 06:01:28;;;;;;;6.78;2.83;;;;;15.20;96197.00;;;;8431715;28;20215;-71
2022/09/10 06:05:31;;;;;;;5.03;2.70;;;;;15.20;96204.00;;;;8432244;28;20219;-70
2022/09/10 06:10:08;;;;;;;4.88;2.60;;;;;15.20;96205.00;;;;8432136;28;20223;-71
2022/09/10 06:14:14;;;;;;;4.18;2.42;;;;;15.30;96199.00;;;;8431752;28;20215;-71
2022/09/10 06:18:18;;;;;;;5.80;2.30;;;;;15.40;96198.00;;;;8431074;28;20236;-71
2022/09/10 06:22:21;;;;;;;2.90;2.22;;;;;15.50;96199.00;;;;8430327;28;20226;-70
2022/09/10 06:26:48;;;;;;;5.28;2.33;;;;;15.50;96201.00;;;;8431201;28;20660;-70
2022/09/10 06:30:52;;;;;;;3.65;2.10;;;;;15.60;96201.00;;;;8430749;28;20226;-70
2022/09/10 06:34:55;;;;;;;7.32;2.40;;;;;15.60;96199.00;;;;8430360;28;20219;-71
2022/09/10 06:39:00;;;;;;;5.07;2.17;;;;;15.50;96207.00;;;;8430436;28;20641;-71
2022/09/10 06:43:03;;;;;;;2.33;1.95;;;;;15.50;96207.00;;;;8430558;28;20302;-71
2022/09/10 06:47:08;;;;;;;2.20;2.08;;;;;15.40;96206.00;;;;8430317;28;20223;-71
2022/09/10 06:51:43;;;;;;;3.28;2.15;;;;;15.60;96193.00;;;;8430079;28;20218;-70
2022/09/10 06:55:47;;;;;;;4.47;2.00;;;;;15.60;96206.00;;;;8430495;28;20703;-70
2022/09/10 06:59:50;;;;;;;6.80;1.85;;;;;15.50;96208.00;;;;8429750;28;20549;-69
2022/09/10 07:03:59;;;;;;;1.98;1.60;;;;;15.40;96205.00;;;;8429436;28;20227;-70
2022/09/10 07:08:33;;;;;;;5.13;1.70;;;;;15.50;96208.00;;;;8429426;28;20234;-71
2022/09/10 07:12:36;;;;;;;1.77;1.63;;;;;15.70;96209.00;;;;8430027;28;20222;-71
2022/09/10 07:16:40;;;;;;;2.10;1.50;;;;;15.90;96213.00;;;;8428954;28;20226;-72
2022/09/10 07:21:16;;;;;;;2.83;1.60;;;;;16.00;96222.00;;;;8428990;28;20222;-72
2022/09/10 07:25:19;;;;;;;1.85;1.65;;;;;16.40;96227.00;;;;8429876;28;20234;-72
2022/09/10 07:29:22;;;;;;;1.33;1.30;;;;;16.60;96243.00;;;;8428715;28;20553;-71
2022/09/10 07:33:57;;;;;;;3.25;1.55;;;;;17.00;96241.00;;;;8429376;28;20269;-71
2022/09/10 07:38:01;;;;;;;1.20;1.15;;;;;17.40;96242.00;;;;8428309;28;20279;-71
2022/09/10 07:42:05;;;;;;;1.80;1.25;;;;;17.80;96243.00;;;;8428750;28;20215;-70
2022/09/10 07:46:11;;;;;;;1.20;1.17;;;;;18.00;96254.00;;;;8427915;28;20219;-70
2022/09/10 07:50:15;;;;;;;2.22;0.93;;;;;18.00;96255.00;;;;8428378;28;20272;-70
2022/09/10 07:54:19;;;;;;;1.65;0.93;;;;;18.10;96263.00;;;;8427755;28;20215;-71
2022/09/10 07:58:22;;;;;;;4.05;1.13;;;;;18.00;96258.00;;;;8428330;28;20222;-71
2022/09/10 08:02:25;;;;;;;1.35;1.10;;;;;18.00;96265.00;;;;8427747;28;20226;-71
2022/09/10 08:06:31;;;;;;;2.28;1.20;;;;;17.90;96271.00;;;;8428329;28;20222;-72
2022/09/10 08:11:04;;;;;;;2.92;1.25;;;;;17.90;96263.00;;;;8427614;28;20219;-71
2022/09/10 08:15:15;;;;;;;1.67;1.17;;;;;17.90;96260.00;;;;8428629;28;20291;-72
2022/09/10 08:19:18;;;;;;;8.40;4.53;;;;;18.00;96275.00;;;;8427140;28;20226;-71
2022/09/10 08:23:55;;;;;;;1.48;1.42;;;;;18.00;96281.00;;;;8427643;28;20222;-71
2022/09/10 08:27:58;;;;;;;2.13;1.58;;;;;17.90;96280.00;;;;8427108;28;20230;-71
2022/09/10 08:32:03;;;;;;;1.67;1.52;;;;;17.70;96285.00;;;;8429401;28;20219;-70
2022/09/10 08:36:38;;;;;;;1.63;1.50;;;;;17.60;96289.00;;;;8434722;28;20231;-72
2022/09/10 08:40:42;;;;;;;1.98;1.50;;;;;17.50;96294.00;;;;8434318;28;20218;-72
2022/09/10 08:44:48;;;;;;;1.95;1.60;;;;;17.40;96288.00;;;;8434233;28;20560;-72
2022/09/10 08:49:04;;;;;;;3.30;1.90;;;;;17.20;96302.00;;;;8434557;28;20219;-71
2022/09/10 08:53:28;;;;;;;3.85;1.75;;;;;17.00;96297.00;;;;8433866;28;20211;-70
2022/09/10 08:57:35;;;;;;;2.08;1.88;;;;;16.70;96305.00;;;;8433560;28;20241;-71
2022/09/10 09:01:44;;;;;;;3.40;1.80;;;;;16.70;96300.00;;;;8433504;28;20218;-71
2022/09/10 09:06:23;;;;;;;4.82;1.98;;;;;16.70;96307.00;;;;8433786;28;20225;-72
2022/09/10 09:10:32;;;;;;;2.95;2.15;;;;;16.80;96292.00;;;;8433348;28;20219;-71
2022/09/10 09:15:08;;;;;;;1.73;1.63;;;;;16.90;96298.00;;;;8433879;28;20226;-72
2022/09/10 09:19:21;;;;;;;2.78;2.58;;;;;17.30;96301.00;;;;8432663;28;20219;-71
2022/09/10 09:23:38;;;;;;;22.88;17.30;;;;;17.70;96297.00;;;;8433788;28;20688;-71
2022/09/10 09:28:03;;;;;;;24.17;12.98;;;;;17.80;96300.00;;;;8432994;28;20224;-70
2022/09/10 09:32:06;;;;;;;60.80;31.80;;;;;17.70;96308.00;;;;8433008;28;20219;-71
2022/09/10 09:36:16;;;;;;;94.80;36.92;;;;;17.50;96307.00;;;;8432674;28;20222;-70
2022/09/10 09:40:29;;;;;;;9.90;5.10;;;;;17.50;96308.00;;;;8432514;28;20214;-71
2022/09/10 09:45:01;;;;;;;108.35;41.78;;;;;17.00;96298.00;;;;8431695;28;20575;-67
2022/09/10 09:49:05;;;;;;;34.90;14.68;;;;;16.70;96298.00;;;;8432327;28;20211;-67
2022/09/10 09:53:14;;;;;;;81.10;31.67;;;;;16.70;96299.00;;;;8432158;28;20269;-68
2022/09/10 09:57:19;;;;;;;148.82;46.95;;;;;16.80;96294.00;;;;8432587;28;20295;-68
2022/09/10 10:01:41;;;;;;;99.97;33.35;;;;;16.90;96292.00;;;;8432169;28;20276;-69
2022/09/10 10:05:45;;;;;;;72.70;26.38;;;;;17.00;96287.00;;;;8398589;28;20482;-71
2022/09/10 10:09:50;;;;;;;25.33;11.13;;;;;17.10;96282.00;;;;8397822;28;20239;-71
2022/09/10 10:14:12;;;;;;;29.58;13.60;;;;;17.30;96274.00;;;;8398352;28;20211;-72
2022/09/10 10:18:31;;;;;;;12.85;6.03;;;;;17.50;96277.00;;;;8397730;28;20234;-71
2022/09/10 10:23:26;;;;;;;27.38;14.02;;;;;17.80;96273.00;;;;8397205;28;20239;-72
2022/09/10 10:27:35;;;;;;;196.25;50.60;;;;;18.30;96278.00;;;;8397360;28;20243;-71
2022/09/10 10:31:42;;;;;;;449.88;135.10;;;;;18.70;96255.00;;;;8397184;28;20218;-71
2022/09/10 10:35:50;;;;;;;76.13;40.85;;;;;18.90;96255.00;;;;8397499;28;20560;-71
2022/09/10 10:40:09;;;;;;;8.82;6.22;;;;;19.00;96251.00;;;;8396983;28;20566;-71
2022/09/10 10:44:34;;;;;;;8.65;6.38;;;;;19.10;96252.00;;;;8396423;28;20212;-72
2022/09/10 10:49:01;;;;;;;11.15;6.88;;;;;19.10;96247.00;;;;8396347;28;20617;-71
2022/09/10 10:53:21;;;;;;;16.75;9.13;;;;;19.20;96246.00;;;;8396525;28;20306;-72
2022/09/10 10:57:38;;;;;;;4.45;3.35;;;;;19.60;96234.00;;;;8395676;28;20723;-71
2022/09/10 11:01:47;;;;;;;6.22;3.38;;;;;20.20;96235.00;;;;8397098;28;20232;-71
2022/09/10 11:05:57;;;;;;;6.45;1.95;;;;;20.40;96235.00;;;;8430142;28;20368;-71
2022/09/10 11:10:03;;;;;;;2.60;1.83;;;;;20.80;96230.00;;;;8429507;28;20215;-70
2022/09/10 11:14:22;;;;;;;3.83;1.40;;;;;20.50;96219.00;;;;8429827;28;20220;-71
2022/09/10 11:18:30;;;;;;;2.20;1.58;;;;;20.90;96234.00;;;;8429702;28;20273;-72
2022/09/10 11:22:38;;;;;;;3.33;1.75;;;;;21.30;96230.00;;;;8428900;28;20225;-70
2022/09/10 11:27:10;;;;;;;1.52;1.25;;;;;21.70;96228.00;;;;8429281;28;20222;-67
2022/09/10 11:31:20;;;;;;;3.60;1.40;;;;;22.10;96229.00;;;;8428698;28;20268;-68
2022/09/10 11:35:27;;;;;;;2.90;1.20;;;;;22.50;96227.00;;;;8429478;28;20220;-68
2022/09/10 11:39:35;;;;;;;1.92;1.35;;;;;22.30;96232.00;;;;8428467;28;20222;-68
2022/09/10 11:43:47;;;;;;;4.03;1.50;;;;;22.20;96229.00;;;;8429215;28;20290;-68
2022/09/10 11:47:55;;;;;;;1.83;1.25;;;;;22.50;96240.00;;;;8428848;28;20223;-68
2022/09/10 11:52:26;;;;;;;2.40;1.30;;;;;22.10;96237.00;;;;8429480;28;20219;-68
2022/09/10 11:56:51;;;;;;;2.00;1.42;;;;;21.30;96237.00;;;;8428422;28;20566;-68
2022/09/10 12:01:04;;;;;;;1.67;1.20;;;;;20.80;96243.00;;;;8428625;28;20587;-68
2022/09/10 12:05:19;;;;;;;8.77;1.40;;;;;19.60;96256.00;;;;8427886;28;20219;-68
2022/09/10 12:09:27;;;;;;;2.40;1.10;;;;;18.20;96246.00;;;;8428508;28;20222;-67
2022/09/10 12:13:36;;;;;;;1.17;0.98;;;;;17.50;96222.00;;;;8427618;28;20541;-68
2022/09/10 12:17:43;;;;;;;4.80;1.17;;;;;17.20;96235.00;;;;8427818;28;20227;-70
2022/09/10 12:22:19;;;;;;;0.88;0.88;;;;;17.00;96232.00;;;;8427415;28;20567;-70
2022/09/10 12:26:22;;;;;;;2.20;1.33;;;;;17.00;96223.00;;;;8428289;28;20553;-71
2022/09/10 12:30:58;;;;;;;2.75;1.65;;;;;17.10;96222.00;;;;8427822;28;20223;-71
2022/09/10 12:35:48;;;;;;;4.93;1.75;;;;;17.30;96216.00;;;;8421789;28;20207;-71
2022/09/10 12:40:23;;;;;;;3.22;1.30;;;;;17.60;96218.00;;;;8427132;28;20227;-70
2022/09/10 12:44:47;;;;;;;2.05;1.30;;;;;17.60;96234.00;;;;8416838;28;20256;-71
2022/09/10 12:49:12;;;;;;;2.22;1.25;;;;;17.50;96219.00;;;;8426830;28;20645;-71
2022/09/10 12:53:50;;;;;;;2.05;1.30;;;;;17.60;96215.00;;;;8427126;28;20656;-71
2022/09/10 12:58:00;;;;;;;4.65;1.92;;;;;17.80;96212.00;;;;8427084;28;20223;-71
2022/09/10 13:02:20;;;;;;;2.70;1.48;;;;;17.90;96199.00;;;;8427505;28;20227;-71
2022/09/10 13:06:42;;;;;;;4.28;1.33;;;;;17.90;96193.00;;;;8426728;28;20213;-71
2022/09/10 13:10:49;;;;;;;87.32;25.88;;;;;18.10;96186.00;;;;8426978;28;20223;-71
2022/09/10 13:14:56;;;;;;;724.80;216.95;;;;;18.30;96186.00;;;;8426664;28;20215;-71
2022/09/10 13:19:41;;;;;;;87.57;24.55;;;;;18.40;96174.00;;;;8429827;28;20264;-71
2022/09/10 13:23:47;;;;;;;403.35;110.72;;;;;18.60;96175.00;;;;8432213;28;20242;-69
2022/09/10 13:27:50;;;;;;;43.42;12.63;;;;;18.90;96173.00;;;;8433292;28;20223;-69
2022/09/10 13:32:28;;;;;;;42.70;15.60;;;;;19.40;96168.00;;;;8432661;28;20220;-69
2022/09/10 13:36:39;;;;;;;255.35;85.72;;;;;19.50;96169.00;;;;8432515;28;20226;-70
2022/09/10 13:41:00;;;;;;;44.75;21.15;;;;;19.40;96172.00;;;;8432130;28;20238;-70
2022/09/10 13:45:15;;;;;;;29.50;14.23;;;;;19.60;96171.00;;;;8432796;28;20215;-71
2022/09/10 13:49:45;;;;;;;13.60;7.20;;;;;19.90;96173.00;;;;8432135;28;20215;-71
2022/09/10 13:53:49;;;;;;;34.42;19.17;;;;;19.80;96178.00;;;;8432533;28;20261;-70
2022/09/10 13:57:56;;;;;;;9.77;6.57;;;;;19.50;96178.00;;;;8431436;28;20215;-70
2022/09/10 14:02:36;;;;;;;4.00;1.80;;;;;19.50;96178.00;;;;8430207;28;20232;-70
2022/09/10 14:06:39;;;;;;;3.47;1.85;;;;;19.40;96184.00;;;;8431817;28;20279;-71
2022/09/10 14:10:58;;;;;;;3.45;1.80;;;;;19.20;96185.00;;;;8431753;28;20238;-71
2022/09/10 14:15:22;;;;;;;2.13;1.92;;;;;19.30;96183.00;;;;8431833;28;20226;-70
2022/09/10 14:19:29;;;;;;;1.70;1.60;;;;;19.30;96186.00;;;;8430715;28;20233;-70
2022/09/10 14:23:32;;;;;;;3.45;1.40;;;;;19.20;96178.00;;;;8431656;28;20671;-70
2022/09/10 14:28:20;;;;;;;5.25;1.58;;;;;19.10;96192.00;;;;8431248;28;20583;-70
2022/09/10 14:32:29;;;;;;;4.18;1.80;;;;;19.00;96194.00;;;;8429071;28;20203;-70
2022/09/10 14:36:34;;;;;;;2.38;1.63;;;;;18.90;96182.00;;;;8430679;28;20691;-69
2022/09/10 14:41:17;;;;;;;5.18;2.10;;;;;18.60;96184.00;;;;8431052;28;20223;-69
2022/09/10 14:45:42;;;;;;;13.88;2.60;;;;;18.50;96181.00;;;;8429432;28;20256;-68
2022/09/10 14:49:45;;;;;;;6.70;2.63;;;;;18.40;96182.00;;;;8430623;28;20329;-70
2022/09/10 14:53:51;;;;;;;3.42;2.45;;;;;18.50;96173.00;;;;8430300;28;20686;-71
2022/09/10 14:58:29;;;;;;;3.78;1.80;;;;;19.00;96170.00;;;;8430785;28;20215;-73
2022/09/10 15:02:33;;;;;;;3.55;1.75;;;;;19.20;96181.00;;;;8428973;28;20211;-72
2022/09/10 15:06:37;;;;;;;1.42;1.33;;;;;19.10;96178.00;;;;8429880;28;20219;-73
2022/09/10 15:11:13;;;;;;;2.47;1.20;;;;;19.20;96173.00;;;;8429260;28;20219;-71
2022/09/10 15:15:18;;;;;;;1.85;1.38;;;;;19.50;96178.00;;;;8429605;28;20215;-72
2022/09/10 15:19:23;;;;;;;2.20;1.30;;;;;19.50;96161.00;;;;8429042;28;20541;-71
2022/09/10 15:23:56;;;;;;;3.30;1.88;;;;;19.40;96165.00;;;;8429928;28;20221;-70
2022/09/10 15:28:00;;;;;;;6.53;1.55;;;;;19.20;96166.00;;;;8428710;28;20636;-70
2022/09/10 15:32:03;;;;;;;4.95;1.50;;;;;19.10;96173.00;;;;8429668;28;20250;-70
2022/09/10 15:36:09;;;;;;;3.13;1.50;;;;;19.10;96175.00;;;;8429231;28;20542;-69
2022/09/10 15:40:12;;;;;;;2.67;1.35;;;;;18.90;96173.00;;;;8428763;28;20257;-70
2022/09/10 15:44:17;;;;;;;2.58;1.10;;;;;18.60;96179.00;;;;8428593;28;20226;-70
2022/09/10 15:48:20;;;;;;;5.30;2.15;;;;;18.10;96185.00;;;;8428494;28;20613;-69
2022/09/10 15:52:25;;;;;;;3.47;1.60;;;;;17.60;96180.00;;;;8428289;28;20215;-70
2022/09/10 15:56:29;;;;;;;2.30;1.50;;;;;17.30;96181.00;;;;8428944;28;20260;-71
2022/09/10 16:00:36;;;;;;;1.33;1.23;;;;;17.10;96183.00;;;;8427955;28;20290;-72
2022/09/10 16:04:39;;;;;;;3.33;1.88;;;;;17.10;96185.00;;;;8427383;28;20525;-73
2022/09/10 16:09:17;;;;;;;5.18;1.60;;;;;17.20;96179.00;;;;8428292;28;20231;-74
2022/09/10 16:13:20;;;;;;;1.83;1.60;;;;;17.10;96183.00;;;;8427420;28;20211;-73
2022/09/10 16:17:24;;;;;;;4.25;1.77;;;;;17.20;96186.00;;;;8428278;28;20215;-73
2022/09/10 16:22:00;;;;;;;3.70;1.52;;;;;17.20;96193.00;;;;8427466;28;20219;-74
2022/09/10 16:26:06;;;;;;;6.68;1.70;;;;;17.10;96180.00;;;;8427842;28;20214;-72
2022/09/10 16:30:11;;;;;;;2.65;1.50;;;;;17.10;96177.00;;;;8427811;28;20682;-72
2022/09/10 16:34:45;;;;;;;4.43;1.90;;;;;17.00;96178.00;;;;8426945;28;20224;-71
2022/09/10 16:38:53;;;;;;;4.10;1.98;;;;;16.90;96176.00;;;;8426731;28;20223;-71
2022/09/10 16:42:57;;;;;;;2.45;1.33;;;;;16.90;96173.00;;;;8427734;28;20215;-71
2022/09/10 16:47:32;;;;;;;2.65;1.77;;;;;16.90;96177.00;;;;8427018;28;20222;-71
2022/09/10 16:51:35;;;;;;;2.75;1.60;;;;;16.90;96179.00;;;;8427444;28;20219;-71
2022/09/10 16:55:39;;;;;;;6.38;2.13;;;;;16.90;96186.00;;;;8432818;28;20223;-71
2022/09/10 16:59:43;;;;;;;2.03;1.63;;;;;17.00;96193.00;;;;8433559;28;20663;-71
2022/09/10 17:03:49;;;;;;;2.70;1.65;;;;;17.00;96193.00;;;;8432502;28;20223;-71
2022/09/10 17:07:52;;;;;;;2.65;1.40;;;;;17.00;96197.00;;;;8433519;28;20580;-71
2022/09/10 17:11:55;;;;;;;2.15;1.50;;;;;17.00;96194.00;;;;8433741;28;20560;-71
2022/09/10 17:16:36;;;;;;;1.85;1.50;;;;;16.90;96192.00;;;;8433530;28;20652;-72
2022/09/10 17:20:39;;;;;;;2.33;1.50;;;;;16.80;96192.00;;;;8432532;28;20242;-72
2022/09/10 17:24:42;;;;;;;3.63;1.70;;;;;16.80;96197.00;;;;8433134;28;20230;-72
2022/09/10 17:29:21;;;;;;;2.35;1.50;;;;;16.80;96192.00;;;;8432914;28;20215;-71
2022/09/10 17:33:25;;;;;;;4.28;1.67;;;;;16.80;96191.00;;;;8432938;28;20215;-72
2022/09/10 17:37:29;;;;;;;4.22;1.70;;;;;16.80;96197.00;;;;8432714;28;20223;-72
2022/09/10 17:41:33;;;;;;;2.85;1.83;;;;;16.80;96198.00;;;;8431929;28;20231;-72
2022/09/10 17:46:10;;;;;;;4.65;1.85;;;;;16.80;96201.00;;;;8432728;28;22506;-72
2022/09/10 17:50:15;;;;;;;2.75;1.90;;;;;16.80;96206.00;;;;8432134;28;20648;-72
2022/09/10 17:54:18;;;;;;;1.92;1.83;;;;;16.80;96203.00;;;;8430674;28;20218;-72
2022/09/10 17:58:22;;;;;;;4.03;1.88;;;;;16.80;96204.00;;;;8431552;28;20254;-72
2022/09/10 18:02:56;;;;;;;7.60;2.00;;;;;16.70;96230.00;;;;8431735;28;20254;-71
2022/09/10 18:07:00;;;;;;;1.38;1.30;;;;;16.40;96244.00;;;;8429690;28;20230;-67
2022/09/10 18:11:34;;;;;;;13.70;1.40;;;;;16.00;96247.00;;;;8432077;28;20224;-68
2022/09/10 18:15:40;;;;;;;2.95;1.40;;;;;15.70;96237.00;;;;8431527;28;20529;-66
2022/09/10 18:19:44;;;;;;;2.35;1.40;;;;;15.60;96240.00;;;;8431661;28;20227;-69
2022/09/10 18:24:21;;;;;;;2.38;1.50;;;;;15.60;96237.00;;;;8431159;28;20219;-71
2022/09/10 18:28:26;;;;;;;4.80;1.60;;;;;15.70;96249.00;;;;8430187;28;20219;-71
2022/09/10 18:32:29;;;;;;;5.50;1.50;;;;;15.70;96252.00;;;;8430477;28;20230;-73
2022/09/10 18:37:05;;;;;;;9.25;2.10;;;;;15.70;96260.00;;;;8431015;28;20245;-72
2022/09/10 18:41:21;;;;;;;2.20;1.50;;;;;15.70;96261.00;;;;8430431;28;20242;-73
2022/09/10 18:45:25;;;;;;;5.07;1.92;;;;;15.80;96256.00;;;;8430864;28;20222;-72
2022/09/10 18:49:29;;;;;;;6.35;1.65;;;;;16.00;96260.00;;;;8430526;28;20223;-73
2022/09/10 18:53:32;;;;;;;7.55;1.77;;;;;16.00;96249.00;;;;8429545;28;20223;-73
2022/09/10 18:57:35;;;;;;;4.35;1.83;;;;;16.10;96261.00;;;;8430319;28;20579;-73
2022/09/10 19:01:41;;;;;;;1.60;1.50;;;;;16.10;96255.00;;;;8429886;28;20230;-73
2022/09/10 19:11:02;;;;;;;3.60;2.60;;;;;16.00;96245.00;;;;8429642;28;20287;-74
2022/09/10 19:15:06;;;;;;;3.42;2.70;;;;;16.00;96245.00;;;;8428672;28;20223;-73
2022/09/10 19:19:14;;;;;;;2.58;2.03;;;;;15.90;96249.00;;;;8429365;28;20330;-74
2022/09/10 19:23:17;;;;;;;3.90;2.47;;;;;15.80;96253.00;;;;8429583;28;20298;-74
2022/09/10 19:27:22;;;;;;;1.95;1.85;;;;;15.70;96242.00;;;;8428710;28;20648;-74
2022/09/10 19:31:59;;;;;;;1.95;1.85;;;;;15.60;96238.00;;;;8429164;28;20219;-74
2022/09/10 19:36:05;;;;;;;7.30;2.03;;;;;15.50;96237.00;;;;8428700;28;20227;-73
2022/09/10 19:40:10;;;;;;;2.28;2.08;;;;;15.40;96242.00;;;;8428503;28;20241;-73
2022/09/10 19:44:17;;;;;;;2.95;2.17;;;;;15.40;96242.00;;;;8428694;28;20221;-74
2022/09/10 19:48:52;;;;;;;2.00;1.77;;;;;15.30;96249.00;;;;8428922;28;20223;-73
2022/09/10 19:52:56;;;;;;;4.30;1.58;;;;;15.40;96256.00;;;;8427814;28;20270;-73
2022/09/10 19:56:59;;;;;;;2.20;1.73;;;;;15.30;96254.00;;;;8428399;28;20242;-72
2022/09/10 20:01:07;;;;;;;1.80;1.70;;;;;15.40;96259.00;;;;8428208;28;20662;-73
2022/09/10 20:05:38;;;;;;;4.13;1.60;;;;;15.30;96265.00;;;;8427187;28;20230;-73
2022/09/10 20:09:43;;;;;;;4.10;1.95;;;;;15.30;96261.00;;;;8427943;28;20215;-73
2022/09/10 20:13:46;;;;;;;3.00;1.63;;;;;15.20;96267.00;;;;8427127;28;20219;-72
2022/09/10 20:17:50;;;;;;;2.03;1.70;;;;;15.10;96253.00;;;;8427810;28;20226;-72
2022/09/10 20:21:53;;;;;;;4.25;1.98;;;;;15.00;96256.00;;;;8427111;28;20227;-71
2022/09/10 20:26:06;;;;;;;2.10;1.90;;;;;15.00;96256.00;;;;8428038;28;20301;-72
2022/09/10 20:30:10;;;;;;;1.80;1.70;;;;;15.00;96261.00;;;;8427554;28;20226;-72
2022/09/10 20:34:44;;;;;;;3.97;1.80;;;;;14.90;96258.00;;;;8427542;28;20214;-72
2022/09/10 20:38:48;;;;;;;3.33;2.10;;;;;14.90;96259.00;;;;8426833;28;20230;-72
2022/09/10 20:42:52;;;;;;;8.07;2.00;;;;;14.90;96261.00;;;;8427369;28;20570;-72
2022/09/10 20:46:55;;;;;;;5.47;2.10;;;;;15.00;96259.00;;;;8426620;28;20211;-72
2022/09/10 20:51:33;;;;;;;4.22;1.92;;;;;15.00;96250.00;;;;8427322;28;20223;-72
2022/09/10 20:55:36;;;;;;;4.55;1.95;;;;;15.00;96258.00;;;;8426652;28;20210;-72
2022/09/10 20:59:42;;;;;;;7.45;2.33;;;;;15.10;96262.00;;;;8427583;28;20295;-72
2022/09/10 21:03:46;;;;;;;6.35;2.60;;;;;15.20;96254.00;;;;8426397;28;20601;-72
2022/09/10 21:07:50;;;;;;;6.68;2.40;;;;;15.20;96261.00;;;;8426562;28;20529;-72